createdAt,value
2023-05-05T00:01:08.836Z,3.78
2023-05-05T00:03:35.838Z,3.85
2023-05-05T00:06:02.664Z,3.53
2023-05-05T00:08:29.165Z,3.50
2023-05-05T00:10:56.531Z,3.60
2023-05-05T00:13:23.527Z,3.88
2023-05-05T00:15:52.436Z,4.05
2023-05-05T00:18:19.958Z,4.20
2023-05-05T00:20:47.652Z,4.05
2023-05-05T00:23:16.765Z,4.07
2023-05-05T00:25:43.731Z,4.68
2023-05-05T00:28:10.540Z,3.58
2023-05-05T00:30:37.515Z,4.20
2023-05-05T00:33:04.338Z,4.10
2023-05-05T00:35:30.909Z,4.25
2023-05-05T00:37:58.109Z,4.22
2023-05-05T00:40:25.283Z,4.55
2023-05-05T00:42:52.341Z,4.18
2023-05-05T00:45:19.982Z,4.20
2023-05-05T00:47:49.305Z,3.33
2023-05-05T00:50:23.718Z,4.05
2023-05-05T00:52:52.705Z,4.50
2023-05-05T00:55:19.435Z,4.35
2023-05-05T00:57:46.707Z,4.05
2023-05-05T01:00:13.509Z,4.30
2023-05-05T01:02:40.443Z,4.70
2023-05-05T01:05:09.469Z,4.47
2023-05-05T01:07:44.772Z,4.80
2023-05-05T01:10:20.860Z,4.55
2023-05-05T01:12:58.444Z,4.47
2023-05-05T01:15:49.045Z,5.03
2023-05-05T01:18:40.759Z,4.97
2023-05-05T01:21:34.783Z,2.92
2023-05-05T01:24:14.086Z,2.92
2023-05-05T01:27:05.494Z,3.17
2023-05-05T01:29:41.080Z,3.58
2023-05-05T01:32:10.683Z,3.40
2023-05-05T01:34:44.012Z,3.40
2023-05-05T01:37:18.190Z,3.22
2023-05-05T01:39:49.943Z,3.28
2023-05-05T01:42:18.517Z,3.28
2023-05-05T01:44:47.478Z,3.35
2023-05-05T01:47:18.066Z,3.10
2023-05-05T01:49:47.275Z,3.90
2023-05-05T01:52:16.129Z,3.28
2023-05-05T01:54:45.082Z,3.60
2023-05-05T01:57:13.632Z,3.83
2023-05-05T01:59:40.629Z,3.05
2023-05-05T02:02:09.812Z,3.40
2023-05-05T02:04:44.259Z,3.50
2023-05-05T02:07:12.997Z,4.10
2023-05-05T02:09:40.709Z,3.92
2023-05-05T02:12:08.512Z,3.58
2023-05-05T02:14:36.767Z,3.70
2023-05-05T02:17:04.174Z,3.22
2023-05-05T02:19:38.373Z,3.50
2023-05-05T02:22:04.942Z,3.55
2023-05-05T02:24:31.746Z,3.42
2023-05-05T02:27:00.243Z,3.63
2023-05-05T02:29:40.064Z,4.07
2023-05-05T02:32:18.361Z,4.60
2023-05-05T02:34:47.892Z,3.25
2023-05-05T02:37:19.943Z,4.43
2023-05-05T02:40:00.165Z,4.40
2023-05-05T02:42:32.236Z,4.30
2023-05-05T02:45:01.018Z,4.50
2023-05-05T02:47:37.357Z,4.28
2023-05-05T02:50:05.417Z,4.55
2023-05-05T02:52:32.950Z,4.68
2023-05-05T02:55:00.051Z,3.92
2023-05-05T02:57:37.486Z,4.70
2023-05-05T03:00:16.584Z,4.07
2023-05-05T03:03:03.027Z,3.47
2023-05-05T03:05:37.623Z,4.03
2023-05-05T03:08:10.600Z,4.65
2023-05-05T03:11:01.516Z,5.10
2023-05-05T03:13:29.381Z,4.63
2023-05-05T03:15:57.898Z,4.78
2023-05-05T03:18:26.026Z,5.60
2023-05-05T03:20:53.282Z,5.15
2023-05-05T03:23:21.033Z,4.50
2023-05-05T03:25:49.125Z,4.50
2023-05-05T03:28:16.437Z,5.70
2023-05-05T03:30:43.087Z,4.20
2023-05-05T03:33:12.738Z,4.10
2023-05-05T03:35:39.154Z,4.07
2023-05-05T03:38:05.590Z,4.53
2023-05-05T03:40:43.043Z,5.03
2023-05-05T03:43:10.910Z,4.32
2023-05-05T03:45:37.706Z,4.47
2023-05-05T03:48:04.512Z,4.15
2023-05-05T03:50:31.013Z,4.30
2023-05-05T03:52:57.433Z,3.92
2023-05-05T03:55:24.498Z,4.22
2023-05-05T03:57:50.921Z,4.82
2023-05-05T04:00:17.669Z,4.00
2023-05-05T04:02:44.191Z,3.83
2023-05-05T04:05:10.784Z,3.83
2023-05-05T04:07:37.254Z,3.90
2023-05-05T04:10:03.839Z,4.63
2023-05-05T04:12:30.324Z,4.38
2023-05-05T04:14:56.814Z,5.05
2023-05-05T04:17:23.272Z,5.45
2023-05-05T04:19:49.786Z,5.38
2023-05-05T04:22:16.403Z,4.70
2023-05-05T04:24:42.862Z,6.30
2023-05-05T04:27:09.339Z,5.10
2023-05-05T04:29:36.064Z,4.82
2023-05-05T04:32:02.510Z,5.10
2023-05-05T04:34:29.006Z,5.30
2023-05-05T04:36:55.473Z,6.45
2023-05-05T04:39:21.906Z,7.00
2023-05-05T04:41:48.380Z,6.93
2023-05-05T04:44:15.655Z,6.28
2023-05-05T04:46:42.134Z,5.30
2023-05-05T04:49:09.186Z,5.40
2023-05-05T04:51:35.848Z,5.80
2023-05-05T04:54:02.316Z,5.15
2023-05-05T04:56:31.364Z,5.05
2023-05-05T04:58:57.793Z,5.00
2023-05-05T05:01:24.237Z,4.90
2023-05-05T05:03:51.087Z,5.55
2023-05-05T05:06:17.538Z,6.15
2023-05-05T05:08:43.989Z,5.18
2023-05-05T05:11:10.547Z,6.07
2023-05-05T05:13:36.990Z,5.80
2023-05-05T05:16:03.703Z,5.60
2023-05-05T05:18:30.184Z,5.80
2023-05-05T05:20:56.569Z,5.70
2023-05-05T05:23:23.025Z,5.88
2023-05-05T05:25:49.588Z,5.50
2023-05-05T05:28:16.090Z,5.05
2023-05-05T05:30:42.913Z,5.13
2023-05-05T05:33:09.530Z,5.13
2023-05-05T05:35:36.125Z,5.43
2023-05-05T05:38:02.570Z,5.00
2023-05-05T05:40:29.070Z,6.53
2023-05-05T05:42:56.117Z,5.65
2023-05-05T05:45:22.845Z,5.93
2023-05-05T05:47:49.457Z,6.97
2023-05-05T05:50:15.914Z,10.25
2023-05-05T05:52:42.310Z,8.32
2023-05-05T05:55:09.303Z,8.40
2023-05-05T05:57:35.966Z,7.82
2023-05-05T06:00:02.666Z,7.50
2023-05-05T06:02:29.356Z,12.32
2023-05-05T06:04:56.056Z,11.23
2023-05-05T06:07:22.536Z,11.63
2023-05-05T06:09:49.009Z,9.52
2023-05-05T06:12:15.556Z,10.70
2023-05-05T06:14:42.068Z,11.43
2023-05-05T06:17:08.479Z,11.48
2023-05-05T06:19:35.147Z,12.10
2023-05-05T06:22:01.573Z,10.45
2023-05-05T06:24:28.005Z,10.63
2023-05-05T06:26:54.449Z,9.52
2023-05-05T06:29:22.246Z,12.02
2023-05-05T06:31:49.050Z,10.27
2023-05-05T06:34:15.806Z,11.77
2023-05-05T06:36:42.214Z,11.23
2023-05-05T06:39:08.699Z,12.15
2023-05-05T06:41:35.478Z,12.45
2023-05-05T06:44:02.104Z,12.77
2023-05-05T06:46:29.024Z,11.85
2023-05-05T06:48:55.437Z,8.60
2023-05-05T06:51:22.743Z,11.35
2023-05-05T06:53:49.477Z,11.93
2023-05-05T06:56:15.939Z,11.90
2023-05-05T06:58:42.696Z,11.30
2023-05-05T07:01:09.605Z,13.18
2023-05-05T07:03:36.171Z,11.40
2023-05-05T07:06:03.550Z,12.07
2023-05-05T07:08:30.061Z,12.48
2023-05-05T07:10:56.593Z,13.75
2023-05-05T07:13:23.059Z,12.93
2023-05-05T07:15:49.645Z,10.32
2023-05-05T07:18:16.670Z,13.55
2023-05-05T07:20:46.530Z,12.93
2023-05-05T07:23:12.991Z,13.20
2023-05-05T07:25:39.487Z,11.65
2023-05-05T07:28:06.196Z,11.75
2023-05-05T07:30:32.593Z,13.77
2023-05-05T07:32:59.144Z,13.15
2023-05-05T07:35:26.312Z,11.05
2023-05-05T07:37:52.764Z,11.63
2023-05-05T07:40:19.237Z,10.38
2023-05-05T07:42:47.376Z,13.60
2023-05-05T07:45:13.843Z,12.32
2023-05-05T07:47:40.768Z,11.60
2023-05-05T07:50:07.908Z,12.23
2023-05-05T07:52:45.118Z,11.70
2023-05-05T07:55:16.533Z,11.73
2023-05-05T07:57:42.977Z,12.07
2023-05-05T08:00:10.772Z,13.25
2023-05-05T08:02:37.525Z,13.45
2023-05-05T08:05:04.553Z,11.48
2023-05-05T08:07:31.053Z,10.77
2023-05-05T08:09:57.706Z,9.90
2023-05-05T08:12:24.902Z,7.47
2023-05-05T08:14:51.453Z,7.90
2023-05-05T08:17:17.920Z,9.27
2023-05-05T08:19:44.301Z,7.18
2023-05-05T08:22:10.890Z,9.07
2023-05-05T08:24:37.388Z,9.38
2023-05-05T08:27:04.092Z,8.10
2023-05-05T08:29:30.463Z,8.18
2023-05-05T08:31:57.169Z,6.05
2023-05-05T08:34:23.780Z,6.10
2023-05-05T08:36:50.917Z,5.10
2023-05-05T08:39:17.367Z,5.72
2023-05-05T08:41:44.107Z,5.03
2023-05-05T08:44:10.723Z,3.65
2023-05-05T08:46:39.156Z,5.22
2023-05-05T08:49:11.155Z,4.85
2023-05-05T08:51:44.231Z,5.30
2023-05-05T08:54:17.684Z,4.13
2023-05-05T08:56:46.960Z,3.85
2023-05-05T08:59:14.627Z,3.70
2023-05-05T09:01:42.916Z,3.60
2023-05-05T09:04:09.826Z,3.08
2023-05-05T09:06:37.184Z,3.42
2023-05-05T09:09:03.776Z,2.92
2023-05-05T09:11:30.932Z,3.30
2023-05-05T09:13:57.342Z,2.05
2023-05-05T09:16:23.853Z,3.53
2023-05-05T09:18:50.502Z,3.30
2023-05-05T09:21:25.959Z,5.22
2023-05-05T09:24:10.272Z,3.03
2023-05-05T09:26:43.358Z,3.28
2023-05-05T09:29:10.318Z,4.30
2023-05-05T09:31:37.562Z,3.83
2023-05-05T09:34:14.883Z,3.10
2023-05-05T09:36:48.787Z,5.28
2023-05-05T09:39:20.154Z,4.75
2023-05-05T09:41:47.057Z,4.70
2023-05-05T09:44:17.029Z,4.85
2023-05-05T09:46:53.148Z,4.07
2023-05-05T09:49:25.202Z,3.80
2023-05-05T09:51:52.902Z,3.63
2023-05-05T09:54:27.371Z,5.18
2023-05-05T09:56:54.941Z,4.50
2023-05-05T09:59:22.197Z,3.83
2023-05-05T10:01:50.053Z,3.95
2023-05-05T10:04:28.244Z,3.47
2023-05-05T10:06:56.700Z,3.17
2023-05-05T10:09:26.960Z,2.45
2023-05-05T10:11:54.210Z,3.20
2023-05-05T10:14:24.127Z,2.60
2023-05-05T10:19:20.026Z,3.78
2023-05-05T10:21:51.519Z,4.18
2023-05-05T10:24:39.355Z,2.65
2023-05-05T10:27:23.903Z,2.97
2023-05-05T10:30:07.903Z,2.70
2023-05-05T10:35:17.023Z,3.45
2023-05-05T10:37:44.675Z,2.90
2023-05-05T10:40:13.316Z,3.38
2023-05-05T10:42:40.205Z,3.45
2023-05-05T10:45:07.725Z,3.53
2023-05-05T10:47:36.071Z,2.97
2023-05-05T10:50:19.345Z,3.10
2023-05-05T10:53:13.816Z,2.83
2023-05-05T10:55:59.156Z,2.80
2023-05-05T10:58:55.406Z,2.83
2023-05-05T11:01:33.568Z,2.60
2023-05-05T11:04:19.484Z,2.60
2023-05-05T11:07:14.575Z,3.40
2023-05-05T11:09:57.502Z,2.45
2023-05-05T11:12:24.337Z,2.72
2023-05-05T11:15:28.107Z,2.85
2023-05-05T11:17:58.573Z,2.50
2023-05-05T11:20:37.563Z,1.98
2023-05-05T11:23:04.127Z,2.83
2023-05-05T11:25:41.074Z,3.40
2023-05-05T11:28:16.402Z,3.22
2023-05-05T11:30:54.920Z,3.30
2023-05-05T11:33:36.840Z,3.50
2023-05-05T11:36:08.117Z,3.45
2023-05-05T11:38:43.988Z,3.35
2023-05-05T11:41:13.981Z,3.00
2023-05-05T11:43:41.736Z,2.78
2023-05-05T11:46:12.888Z,2.83
2023-05-05T11:48:54.681Z,3.10
2023-05-05T11:51:22.148Z,3.05
2023-05-05T11:53:50.847Z,3.63
2023-05-05T11:56:19.273Z,3.10
2023-05-05T11:58:49.726Z,3.35
2023-05-05T12:01:16.682Z,3.95
2023-05-05T12:03:45.453Z,4.20
2023-05-05T12:06:12.990Z,4.07
2023-05-05T12:08:43.710Z,4.25
2023-05-05T12:11:11.131Z,2.78
2023-05-05T12:13:37.821Z,4.20
2023-05-05T12:16:12.920Z,3.60
2023-05-05T12:18:39.899Z,4.40
2023-05-05T12:21:19.822Z,2.85
2023-05-05T12:23:46.520Z,2.50
2023-05-05T12:26:30.007Z,1.90
2023-05-05T12:29:00.362Z,1.23
2023-05-05T12:31:41.117Z,1.10
2023-05-05T12:34:11.605Z,1.45
2023-05-05T12:36:39.310Z,1.35
2023-05-05T12:39:05.824Z,1.98
2023-05-05T12:41:32.965Z,1.30
2023-05-05T12:44:01.156Z,1.40
2023-05-05T12:46:29.735Z,1.50
2023-05-05T12:49:14.976Z,1.27
2023-05-05T12:51:56.406Z,1.75
2023-05-05T12:54:25.055Z,1.98
2023-05-05T12:56:51.565Z,1.40
2023-05-05T12:59:20.953Z,1.70
2023-05-05T13:01:52.475Z,1.42
2023-05-05T13:04:20.940Z,1.55
2023-05-05T13:06:49.852Z,1.55
2023-05-05T13:09:33.935Z,1.70
2023-05-05T13:12:02.857Z,1.52
2023-05-05T13:14:30.806Z,1.63
2023-05-05T13:16:57.423Z,1.70
2023-05-05T13:19:25.024Z,1.67
2023-05-05T13:21:55.577Z,2.10
2023-05-05T13:24:31.602Z,1.67
2023-05-05T13:27:05.555Z,1.85
2023-05-05T13:29:33.001Z,1.70
2023-05-05T13:31:59.783Z,1.45
2023-05-05T13:34:26.272Z,1.50
2023-05-05T13:36:52.694Z,1.30
2023-05-05T13:39:19.159Z,1.60
2023-05-05T13:41:45.687Z,1.25
2023-05-05T13:44:13.705Z,1.63
2023-05-05T13:46:45.092Z,1.55
2023-05-05T13:49:11.654Z,1.48
2023-05-05T13:51:38.912Z,1.13
2023-05-05T13:54:06.465Z,1.25
2023-05-05T13:56:33.933Z,1.45
2023-05-05T13:59:00.921Z,1.10
2023-05-05T14:01:27.540Z,1.40
2023-05-05T14:03:57.133Z,1.73
2023-05-05T14:06:23.955Z,1.30
2023-05-05T14:08:50.415Z,1.20
2023-05-05T14:11:18.140Z,1.33
2023-05-05T14:13:46.578Z,1.13
2023-05-05T14:16:13.556Z,1.27
2023-05-05T14:18:40.445Z,1.52
2023-05-05T14:21:06.967Z,1.85
2023-05-05T14:23:33.411Z,1.27
2023-05-05T14:26:00.736Z,1.30
2023-05-05T14:28:27.163Z,1.30
2023-05-05T14:30:53.739Z,2.20
2023-05-05T14:33:20.218Z,2.20
2023-05-05T14:35:46.667Z,1.70
2023-05-05T14:38:13.165Z,1.75
2023-05-05T14:40:39.584Z,1.17
2023-05-05T14:43:06.353Z,1.40
2023-05-05T14:45:33.324Z,1.02
2023-05-05T14:47:59.775Z,1.10
2023-05-05T14:50:26.298Z,1.35
2023-05-05T14:52:52.740Z,0.90
2023-05-05T14:55:19.356Z,1.20
2023-05-05T14:57:45.769Z,0.90
2023-05-05T15:00:12.807Z,1.02
2023-05-05T15:02:39.269Z,1.00
2023-05-05T15:05:06.380Z,0.60
2023-05-05T15:07:32.882Z,0.90
2023-05-05T15:09:59.322Z,1.00
2023-05-05T15:12:26.015Z,0.98
2023-05-05T15:14:52.527Z,1.00
2023-05-05T15:17:18.935Z,1.00
2023-05-05T15:19:45.365Z,1.17
2023-05-05T15:22:11.756Z,0.90
2023-05-05T15:24:38.296Z,0.68
2023-05-05T15:27:04.817Z,0.80
2023-05-05T15:29:31.592Z,0.90
2023-05-05T15:31:58.157Z,0.98
2023-05-05T15:34:24.761Z,0.75
2023-05-05T15:36:51.475Z,0.95
2023-05-05T15:39:18.065Z,0.80
2023-05-05T15:41:44.568Z,0.80
2023-05-05T15:44:12.366Z,0.80
2023-05-05T15:46:39.719Z,0.70
2023-05-05T15:49:06.283Z,0.60
2023-05-05T15:51:32.700Z,0.93
2023-05-05T15:54:00.663Z,1.00
2023-05-05T15:56:27.521Z,1.48
2023-05-05T15:58:54.275Z,1.52
2023-05-05T16:01:21.077Z,1.88
2023-05-05T16:03:47.551Z,1.70
2023-05-05T16:06:14.089Z,2.08
2023-05-05T16:08:40.766Z,1.88
2023-05-05T16:11:07.245Z,2.03
2023-05-05T16:13:33.808Z,2.15
2023-05-05T16:16:00.302Z,2.38
2023-05-05T16:18:26.771Z,2.28
2023-05-05T16:20:53.150Z,2.10
2023-05-05T16:23:19.612Z,1.70
2023-05-05T16:25:46.120Z,1.90
2023-05-05T16:28:12.529Z,1.80
2023-05-05T16:30:39.886Z,1.88
2023-05-05T16:33:06.853Z,1.70
2023-05-05T16:35:33.475Z,1.88
2023-05-05T16:37:59.886Z,1.60
2023-05-05T16:40:26.319Z,1.50
2023-05-05T16:42:52.791Z,2.20
2023-05-05T16:45:19.173Z,1.92
2023-05-05T16:47:45.622Z,1.33
2023-05-05T16:50:12.166Z,1.60
2023-05-05T16:52:38.564Z,1.80
2023-05-05T16:55:05.455Z,1.75
2023-05-05T16:57:32.035Z,2.05
2023-05-05T16:59:58.524Z,1.50
2023-05-05T17:02:25.059Z,1.58
2023-05-05T17:04:51.596Z,1.90
2023-05-05T17:07:18.080Z,2.33
2023-05-05T17:09:44.691Z,1.70
2023-05-05T17:12:11.210Z,1.48
2023-05-05T17:14:37.676Z,2.00
2023-05-05T17:17:04.106Z,2.65
2023-05-05T17:19:30.620Z,2.25
2023-05-05T17:21:57.240Z,2.38
2023-05-05T17:24:24.109Z,2.13
2023-05-05T17:26:50.602Z,1.88
2023-05-05T17:29:21.569Z,2.20
2023-05-05T17:31:48.192Z,2.42
2023-05-05T17:34:14.660Z,2.40
2023-05-05T17:36:41.129Z,2.88
2023-05-05T17:39:07.728Z,2.00
2023-05-05T17:41:34.202Z,2.33
2023-05-05T17:44:00.736Z,2.45
2023-05-05T17:46:27.865Z,2.90
2023-05-05T17:48:54.545Z,2.35
2023-05-05T17:51:21.038Z,1.95
2023-05-05T17:53:47.529Z,2.33
2023-05-05T17:56:13.978Z,2.03
2023-05-05T17:58:40.466Z,2.53
2023-05-05T18:01:07.140Z,2.40
2023-05-05T18:03:33.783Z,3.22
2023-05-05T18:06:01.200Z,3.03
2023-05-05T18:08:27.674Z,2.83
2023-05-05T18:10:54.342Z,2.70
2023-05-05T18:13:21.414Z,3.03
2023-05-05T18:15:47.978Z,2.95
2023-05-05T18:18:14.639Z,3.38
2023-05-05T18:20:41.140Z,3.08
2023-05-05T18:23:13.378Z,3.08
2023-05-05T18:25:39.911Z,3.60
2023-05-05T18:28:06.398Z,3.00
2023-05-05T18:30:33.432Z,3.25
2023-05-05T18:32:59.883Z,4.68
2023-05-05T18:35:26.310Z,4.15
2023-05-05T18:37:54.475Z,4.38
2023-05-05T18:40:22.054Z,3.05
2023-05-05T18:42:48.596Z,3.65
2023-05-05T18:45:15.346Z,3.80
2023-05-05T18:47:41.827Z,3.30
2023-05-05T18:50:09.862Z,3.85
2023-05-05T18:52:36.357Z,4.40
2023-05-05T18:55:02.877Z,4.82
2023-05-05T18:57:29.680Z,6.00
2023-05-05T18:59:56.136Z,4.40
2023-05-05T19:02:22.645Z,3.15
2023-05-05T19:04:49.131Z,4.03
2023-05-05T19:07:27.479Z,4.65
2023-05-05T19:09:54.347Z,4.15
2023-05-05T19:12:20.796Z,3.72
2023-05-05T19:14:47.304Z,3.72
2023-05-05T19:17:13.771Z,3.42
2023-05-05T19:19:40.275Z,3.20
2023-05-05T19:22:06.718Z,2.72
2023-05-05T19:24:35.406Z,2.90
2023-05-05T19:27:02.852Z,2.83
2023-05-05T19:29:31.319Z,2.75
2023-05-05T19:31:57.857Z,2.95
2023-05-05T19:34:24.390Z,2.90
2023-05-05T19:36:50.898Z,3.75
2023-05-05T19:39:17.427Z,3.13
2023-05-05T19:41:43.909Z,3.17
2023-05-05T19:44:10.699Z,2.97
2023-05-05T19:46:37.373Z,3.35
2023-05-05T19:49:03.838Z,3.28
2023-05-05T19:51:31.563Z,4.15
2023-05-05T19:53:59.418Z,4.50
2023-05-05T19:56:26.024Z,4.15
2023-05-05T19:59:00.656Z,4.00
2023-05-05T20:01:28.355Z,4.00
2023-05-05T20:03:56.477Z,4.72
2023-05-05T20:06:23.380Z,3.50
2023-05-05T20:08:49.881Z,3.70
2023-05-05T20:11:17.464Z,5.30
2023-05-05T20:13:44.216Z,4.45
2023-05-05T20:16:11.678Z,4.28
2023-05-05T20:18:38.731Z,9.18
2023-05-05T20:21:05.228Z,5.18
2023-05-05T20:23:32.018Z,4.60
2023-05-05T20:25:58.458Z,4.57
2023-05-05T20:28:25.011Z,10.75
2023-05-05T20:30:51.529Z,11.60
2023-05-05T20:33:18.023Z,12.15
2023-05-05T20:35:44.500Z,12.40
2023-05-05T20:38:11.212Z,12.55
2023-05-05T20:40:37.735Z,11.48
2023-05-05T20:43:04.199Z,9.88
2023-05-05T20:45:31.766Z,11.60
2023-05-05T20:47:58.670Z,8.60
2023-05-05T20:50:25.704Z,11.63
2023-05-05T20:52:52.194Z,12.55
2023-05-05T20:55:18.811Z,13.90
2023-05-05T20:57:45.957Z,12.90
2023-05-05T21:00:12.826Z,14.35
2023-05-05T21:02:39.396Z,12.65
2023-05-05T21:05:06.465Z,15.23
2023-05-05T21:07:36.186Z,10.77
2023-05-05T21:10:04.482Z,14.02
2023-05-05T21:12:31.102Z,11.60
2023-05-05T21:14:58.890Z,13.38
2023-05-05T21:17:26.740Z,15.85
2023-05-05T21:19:53.775Z,10.93
2023-05-05T21:22:20.943Z,15.68
2023-05-05T21:24:47.453Z,16.92
2023-05-05T21:27:14.163Z,18.23
2023-05-05T21:29:40.848Z,19.40
2023-05-05T21:32:08.771Z,19.13
2023-05-05T21:34:36.265Z,18.60
2023-05-05T21:37:03.106Z,18.83
2023-05-05T21:39:32.194Z,19.13
2023-05-05T21:41:59.141Z,14.43
2023-05-05T21:44:26.397Z,19.77
2023-05-05T21:46:53.345Z,16.85
2023-05-05T21:49:19.938Z,17.92
2023-05-05T21:51:46.485Z,18.27
2023-05-05T21:54:13.031Z,18.88
2023-05-05T21:56:39.563Z,17.50
2023-05-05T21:59:06.061Z,16.80
2023-05-05T22:01:32.757Z,17.52
2023-05-05T22:03:59.303Z,18.40
2023-05-05T22:06:25.870Z,20.15
2023-05-05T22:08:52.378Z,22.00
2023-05-05T22:11:18.996Z,17.67
2023-05-05T22:13:46.603Z,20.83
2023-05-05T22:16:17.406Z,21.52
2023-05-05T22:18:44.754Z,21.33
2023-05-05T22:21:11.604Z,21.42
2023-05-05T22:23:39.114Z,21.40
2023-05-05T22:26:05.577Z,22.10
2023-05-05T22:28:32.047Z,22.60
2023-05-05T22:30:58.499Z,15.23
2023-05-05T22:33:24.978Z,13.88
2023-05-05T22:35:51.994Z,19.33
2023-05-05T22:38:18.559Z,14.68
2023-05-05T22:40:45.711Z,14.35
2023-05-05T22:43:12.216Z,13.98
2023-05-05T22:45:38.897Z,13.18
2023-05-05T22:48:05.719Z,15.85
2023-05-05T22:50:32.267Z,12.75
2023-05-05T22:52:58.740Z,13.55
2023-05-05T22:55:25.307Z,11.88
2023-05-05T22:57:52.625Z,11.60
2023-05-05T23:00:19.314Z,12.02
2023-05-05T23:02:45.838Z,11.27
2023-05-05T23:05:12.554Z,10.80
2023-05-05T23:07:39.252Z,10.30
2023-05-05T23:10:06.276Z,12.00
2023-05-05T23:12:32.800Z,11.30
2023-05-05T23:14:59.272Z,10.73
2023-05-05T23:17:25.737Z,12.00
2023-05-05T23:19:52.172Z,12.48
2023-05-05T23:22:18.564Z,13.60
2023-05-05T23:24:45.037Z,12.52
2023-05-05T23:27:12.445Z,11.75
2023-05-05T23:29:39.056Z,11.27
2023-05-05T23:32:06.337Z,11.32
2023-05-05T23:34:32.853Z,10.25
2023-05-05T23:37:00.463Z,11.48
2023-05-05T23:39:26.903Z,10.32
2023-05-05T23:41:53.338Z,9.90
2023-05-05T23:44:19.764Z,11.23
2023-05-05T23:46:46.481Z,10.63
2023-05-05T23:49:12.950Z,10.80
2023-05-05T23:51:39.364Z,11.38
2023-05-05T23:54:05.916Z,10.43
2023-05-05T23:56:32.336Z,10.73
2023-05-05T23:58:58.761Z,10.57
